Time;durP1;ratioP1;P1;durP2;ratioP2;P2;SDS_P1;SDS_P2;PMS_P1;PMS_P2;Temp;Humidity;BMP_temperature;BMP_pressure;BME280_temperature;BME280_humidity;BME280_pressure;Samples;Min_cycle;Max_cycle;Signal;HPM_P1;HPM_P2
2021/05/22 00:01:54;;;;;;;7.53;1.48;;;;;;;11.02;71.33;99635.09;3574260;40;20615;-76
2021/05/22 00:04:22;;;;;;;4.95;1.70;;;;;;;11.02;71.09;99635.09;3570900;40;20030;-76
2021/05/22 00:06:49;;;;;;;;;;;;;;;11.06;74.04;99634.06;3575661;40;20057;-76
2021/05/22 00:09:17;;;;;;;8.73;1.63;;;;;;;11.01;71.18;99630.81;3570775;40;19941;-76
2021/05/22 00:11:45;;;;;;;;;;;;;;;11.08;74.05;99645.28;3580100;40;20120;-76
2021/05/22 00:14:13;;;;;;;;;;;;;;;11.09;74.25;99640.91;3552927;40;20007;-77
2021/05/22 00:16:39;;;;;;;;;;;;;;;11.09;74.48;99648.75;3573262;40;19991;-76
2021/05/22 00:19:06;;;;;;;5.40;1.10;;;;;;;11.03;70.46;99646.41;3573807;40;19944;-76
2021/05/22 00:21:34;;;;;;;8.02;1.52;;;;;;;10.99;69.84;99642.22;3572422;40;20050;-76
2021/05/22 00:24:01;;;;;;;12.05;1.77;;;;;;;10.95;69.31;99633.66;3572810;40;20033;-76
2021/05/22 00:26:32;;;;;;;4.35;1.10;;;;;;;10.96;70.94;99637.97;3561399;40;20030;-76
2021/05/22 00:29:01;;;;;;;10.20;2.40;;;;;;;10.94;70.64;99641.56;3572238;40;20538;-76
2021/05/22 00:31:29;;;;;;;7.30;1.33;;;;;;;10.91;70.18;99650.38;3567208;40;20030;-77
2021/05/22 00:33:58;;;;;;;;;;;;;;;10.95;73.30;99648.47;3571616;40;20058;-77
2021/05/22 00:36:29;;;;;;;5.30;1.25;;;;;;;10.90;71.01;99649.53;3571163;40;20396;-76
2021/05/22 00:38:56;;;;;;;8.57;1.60;;;;;;;10.86;70.43;99652.31;3568427;40;20029;-76
2021/05/22 00:41:24;;;;;;;7.13;1.48;;;;;;;10.85;69.76;99650.63;3569775;40;20076;-77
2021/05/22 00:43:53;;;;;;;8.20;1.88;;;;;;;10.84;69.87;99657.59;3582302;40;20349;-76
2021/05/22 00:46:21;;;;;;;6.70;1.20;;;;;;;10.82;69.83;99656.81;3574501;40;20452;-76
2021/05/22 00:48:48;;;;;;;;;;;;;;;10.86;72.99;99660.16;3571097;40;20058;-77
2021/05/22 00:51:15;;;;;;;8.03;1.23;;;;;;;10.80;69.36;99665.63;3575822;40;20439;-76
2021/05/22 00:53:44;;;;;;;4.50;1.48;;;;;;;10.80;69.93;99670.84;3572260;40;20620;-75
2021/05/22 00:56:13;;;;;;;7.40;1.35;;;;;;;10.76;69.63;99671.88;3569516;40;20051;-76
2021/05/22 00:58:43;;;;;;;4.00;1.20;;;;;;;10.75;69.99;99675.41;3574680;40;20517;-76
2021/05/22 01:01:11;;;;;;;4.50;1.27;;;;;;;10.72;70.36;99667.69;3576116;40;20074;-77
2021/05/22 01:03:45;;;;;;;5.95;1.70;;;;;;;10.74;71.09;99677.16;3584652;40;20531;-76
2021/05/22 01:06:17;;;;;;;6.53;1.40;;;;;;;10.71;69.81;99671.22;3574284;40;20053;-77
2021/05/22 01:08:53;;;;;;;3.95;1.25;;;;;;;10.73;72.20;99670.22;3578362;40;20033;-77
2021/05/22 01:11:22;;;;;;;8.40;2.17;;;;;;;10.69;71.09;99678.25;3573991;40;20040;-76
2021/05/22 01:14:03;;;;;;;10.52;2.33;;;;;;;10.72;72.56;99676.38;3571529;40;20054;-77
2021/05/22 01:16:30;;;;;;;5.20;1.83;;;;;;;10.68;70.41;99674.78;3569486;40;20034;-77
2021/05/22 01:19:01;;;;;;;5.13;1.35;;;;;;;10.66;70.49;99674.00;3571154;40;20063;-77
2021/05/22 01:21:28;;;;;;;6.70;1.52;;;;;;;10.63;70.10;99680.19;3577024;40;20066;-77
2021/05/22 01:24:20;;;;;;;6.95;1.35;;;;;;;10.64;69.52;99687.13;3571888;40;20405;-76
2021/05/22 01:26:48;;;;;;;5.82;1.35;;;;;;;10.58;68.98;99682.13;3574427;40;20030;-77
2021/05/22 01:29:19;;;;;;;4.65;1.33;;;;;;;10.56;69.38;99681.34;3575733;40;20033;-77
2021/05/22 01:31:49;;;;;;;7.07;1.80;;;;;;;10.54;69.17;99683.19;3576430;40;20040;-76
2021/05/22 01:34:16;;;;;;;4.38;1.30;;;;;;;10.49;68.56;99682.50;3575154;40;20062;-76
2021/05/22 01:36:43;;;;;;;7.00;1.55;;;;;;;10.45;68.64;99691.38;3572997;40;20022;-76
2021/05/22 01:39:11;;;;;;;7.00;1.30;;;;;;;10.44;69.59;99688.78;3575438;40;20040;-76
2021/05/22 01:41:49;;;;;;;8.13;1.67;;;;;;;10.38;69.00;99693.34;3575897;40;20053;-76
2021/05/22 01:44:19;;;;;;;4.28;1.10;;;;;;;10.31;68.43;99693.63;3577014;40;20021;-76
2021/05/22 01:46:53;;;;;;;3.47;1.30;;;;;;;10.26;69.00;99690.34;3570712;40;20034;-76
2021/05/22 01:49:32;;;;;;;4.25;1.52;;;;;;;10.19;69.41;99704.47;3568899;40;20069;-77
2021/05/22 01:52:03;;;;;;;6.47;1.90;;;;;;;10.13;68.79;99710.78;3583334;40;20045;-76
2021/05/22 01:54:31;;;;;;;5.85;1.23;;;;;;;10.04;68.39;99716.34;3572641;40;20025;-76
2021/05/22 01:57:00;;;;;;;5.38;1.40;;;;;;;9.98;67.93;99716.56;3572864;40;20034;-76
2021/05/22 01:59:28;;;;;;;6.75;1.55;;;;;;;9.90;68.86;99722.06;3569251;40;20435;-76
2021/05/22 02:01:57;;;;;;;4.72;1.52;;;;;;;9.81;69.50;99720.63;3569265;40;20062;-77
2021/05/22 02:04:27;;;;;;;7.03;1.55;;;;;;;9.77;68.61;99723.38;3574178;40;20054;-76
2021/05/22 02:06:59;;;;;;;3.97;1.10;;;;;;;9.69;68.93;99722.81;3574692;40;20029;-76
2021/05/22 02:09:28;;;;;;;6.10;1.67;;;;;;;9.62;68.77;99727.38;3575541;40;20483;-76
2021/05/22 02:11:55;;;;;;;2.33;0.82;;;;;;;9.55;69.42;99729.34;3575471;40;20050;-77
2021/05/22 02:14:31;;;;;;;6.20;1.17;;;;;;;9.48;70.04;99729.59;3562356;40;20096;-76
2021/05/22 02:17:02;;;;;;;5.07;1.38;;;;;;;9.41;69.56;99728.94;3579935;40;20033;-76
2021/05/22 02:19:30;;;;;;;7.10;1.20;;;;;;;9.34;69.79;99735.28;3573663;40;20027;-76
2021/05/22 02:22:03;;;;;;;4.88;1.17;;;;;;;9.26;70.33;99732.06;3569556;40;20384;-76
2021/05/22 02:24:31;;;;;;;16.20;2.58;;;;;;;9.19;69.19;99741.00;3564214;40;20078;-76
2021/05/22 02:27:00;;;;;;;3.92;1.08;;;;;;;9.14;69.86;99742.91;3565201;40;20471;-77
2021/05/22 02:29:30;;;;;;;4.72;1.17;;;;;;;9.06;70.14;99743.97;3577436;40;20052;-76
2021/05/22 02:31:59;;;;;;;5.13;1.20;;;;;;;8.98;70.69;99743.38;3575622;40;20046;-76
2021/05/22 02:34:31;;;;;;;5.60;1.00;;;;;;;8.93;70.60;99739.22;3578299;40;20033;-77
2021/05/22 02:37:02;;;;;;;6.10;1.77;;;;;;;8.84;70.74;99737.75;3571054;40;20323;-76
2021/05/22 02:39:42;;;;;;;4.32;1.10;;;;;;;8.77;71.30;99741.47;3569428;40;20030;-76
2021/05/22 02:42:13;;;;;;;3.65;1.10;;;;;;;8.71;71.32;99739.88;3573826;40;20025;-76
2021/05/22 02:44:45;;;;;;;4.93;1.17;;;;;;;8.66;70.69;99743.50;3577445;40;20024;-76
2021/05/22 02:47:16;;;;;;;5.40;1.00;;;;;;;8.60;70.96;99746.31;3578431;40;20092;-76
2021/05/22 02:49:45;;;;;;;6.85;1.50;;;;;;;8.52;71.16;99750.00;3571257;40;20026;-76
2021/05/22 02:52:16;;;;;;;3.83;1.00;;;;;;;8.44;71.31;99741.53;3573070;40;20057;-77
2021/05/22 02:54:48;;;;;;;7.93;1.17;;;;;;;8.43;71.37;99749.41;3575708;40;20320;-76
2021/05/22 02:57:17;;;;;;;9.10;1.20;;;;;;;8.37;71.58;99737.44;3575526;40;20054;-77
2021/05/22 02:59:50;;;;;;;6.60;1.50;;;;;;;8.30;72.24;99734.09;3576373;40;20021;-77
2021/05/22 03:02:19;;;;;;;3.75;1.10;;;;;;;8.26;72.03;99736.84;3569362;40;20082;-76
2021/05/22 03:04:48;;;;;;;5.90;1.17;;;;;;;8.18;72.00;99742.28;3576830;40;20021;-77
2021/05/22 03:07:15;;;;;;;3.60;0.98;;;;;;;8.15;72.15;99742.34;3574194;40;20022;-76
2021/05/22 03:09:46;;;;;;;2.40;0.90;;;;;;;8.12;72.77;99739.00;3574352;40;20033;-76
2021/05/22 03:12:24;;;;;;;3.80;0.77;;;;;;;8.06;73.18;99740.88;3578970;40;20469;-76
2021/05/22 03:14:53;;;;;;;7.38;1.33;;;;;;;8.02;72.54;99746.19;3574811;40;20026;-76
2021/05/22 03:17:20;;;;;;;9.90;1.52;;;;;;;7.97;72.79;99748.91;3579633;40;20033;-76
2021/05/22 03:19:47;;;;;;;3.70;1.00;;;;;;;7.92;72.75;99750.78;3575592;40;20030;-76
2021/05/22 03:22:13;;;;;;;2.75;0.88;;;;;;;7.89;72.75;99753.47;3576786;40;20037;-76
2021/05/22 03:24:41;;;;;;;3.38;0.95;;;;;;;7.87;73.09;99754.41;3567583;40;20092;-76
2021/05/22 03:27:09;;;;;;;3.63;0.90;;;;;;;7.80;73.39;99753.69;3578995;40;20037;-76
2021/05/22 03:29:39;;;;;;;2.85;0.88;;;;;;;7.80;73.98;99764.09;3580782;40;20556;-76
2021/05/22 03:32:07;;;;;;;2.40;0.80;;;;;;;7.77;73.41;99766.78;3583917;40;20029;-76
2021/05/22 03:34:35;;;;;;;2.53;0.90;;;;;;;7.72;73.84;99772.13;3572812;40;20083;-76
2021/05/22 03:37:03;;;;;;;6.00;1.20;;;;;;;7.71;74.11;99769.56;3578371;40;20041;-77
2021/05/22 03:39:29;;;;;;;;;;;;;;;7.71;75.00;99769.56;3573028;40;20049;-76
2021/05/22 03:41:58;;;;;;;4.28;0.80;;;;;;;7.65;73.76;99769.69;3570093;40;19949;-76
2021/05/22 03:44:27;;;;;;;3.47;1.08;;;;;;;7.63;73.71;99781.88;3580489;40;20513;-76
2021/05/22 03:46:54;;;;;;;5.15;0.90;;;;;;;7.58;74.20;99770.75;3570576;40;20706;-76
2021/05/22 03:49:21;;;;;;;1.75;0.63;;;;;;;7.53;74.22;99781.25;3577371;40;20272;-76
2021/05/22 03:51:48;;;;;;;3.20;0.75;;;;;;;7.50;74.41;99786.53;3572484;40;20029;-77
2021/05/22 03:54:15;;;;;;;3.88;0.80;;;;;;;7.47;74.30;99790.06;3582265;40;20086;-76
2021/05/22 03:56:41;;;;;;;5.72;0.90;;;;;;;7.41;73.74;99777.22;3588608;40;20097;-76
2021/05/22 03:59:14;;;;;;;4.00;1.10;;;;;;;7.42;74.39;99789.31;3577613;40;20041;-77
2021/05/22 04:01:41;;;;;;;4.43;1.52;;;;;;;7.37;74.60;99791.19;3597987;40;20040;-76
2021/05/22 04:04:08;;;;;;;3.95;1.50;;;;;;;7.37;74.54;99790.34;3594391;40;20053;-76
2021/05/22 04:06:35;;;;;;;7.00;1.35;;;;;;;7.31;74.29;99786.13;3580837;40;20013;-76
2021/05/22 04:09:04;;;;;;;2.28;0.80;;;;;;;7.31;75.08;99796.53;3594865;40;20036;-76
2021/05/22 04:11:33;;;;;;;3.25;0.60;;;;;;;7.28;74.55;99801.78;3574987;40;20493;-76
2021/05/22 04:14:00;;;;;;;4.78;1.83;;;;;;;7.23;74.59;99801.03;3589124;40;20029;-76
2021/05/22 04:16:27;;;;;;;4.57;1.00;;;;;;;7.22;74.62;99801.94;3589609;40;20044;-76
2021/05/22 04:18:57;;;;;;;1.65;0.55;;;;;;;7.22;75.12;99807.97;3597462;40;20036;-75
2021/05/22 04:21:43;;;;;;;2.90;1.08;;;;;;;7.23;75.42;99819.22;3592909;40;20036;-76
2021/05/22 04:24:11;;;;;;;3.28;0.80;;;;;;;7.16;74.83;99823.69;3596390;40;20023;-77
2021/05/22 04:26:44;;;;;;;3.50;0.80;;;;;;;7.14;74.95;99824.59;3578598;40;20037;-79
2021/05/22 04:29:13;;;;;;;9.13;1.50;;;;;;;7.13;75.36;99825.50;3592177;40;20040;-79
2021/05/22 04:31:39;;;;;;;3.58;1.08;;;;;;;7.10;74.97;99823.00;3594533;40;20025;-78
2021/05/22 04:34:13;;;;;;;3.47;0.90;;;;;;;7.09;75.16;99826.47;3598181;40;20057;-79
2021/05/22 04:36:42;;;;;;;6.47;0.90;;;;;;;7.06;75.36;99831.72;3594859;40;20027;-78
2021/05/22 04:39:10;;;;;;;2.67;1.00;;;;;;;7.03;75.13;99828.31;3600074;40;20028;-79
2021/05/22 04:41:40;;;;;;;5.88;0.80;;;;;;;7.05;74.91;99835.22;3597563;40;20028;-79
2021/05/22 04:44:11;;;;;;;3.85;0.80;;;;;;;7.00;75.62;99830.97;3601029;40;20028;-79
2021/05/22 04:46:38;;;;;;;4.15;0.85;;;;;;;6.96;75.34;99831.94;3589357;40;20054;-79
2021/05/22 04:49:07;;;;;;;5.38;1.85;;;;;;;7.00;75.30;99843.97;3591282;40;20098;-79
2021/05/22 04:51:36;;;;;;;3.80;0.75;;;;;;;6.97;75.59;99844.00;3598473;40;20040;-79
2021/05/22 04:54:08;;;;;;;1.67;0.77;;;;;;;6.96;75.16;99841.47;3589944;40;20040;-79
2021/05/22 04:56:37;;;;;;;3.17;0.70;;;;;;;6.96;75.17;99847.50;3590555;40;20695;-78
2021/05/22 04:59:06;;;;;;;8.93;1.05;;;;;;;6.91;75.41;99849.34;3589403;40;20032;-78
2021/05/22 05:01:34;;;;;;;2.58;0.60;;;;;;;6.90;75.54;99836.41;3588547;40;20068;-79
2021/05/22 05:04:05;;;;;;;5.53;0.75;;;;;;;6.93;75.19;99844.97;3596565;40;20078;-79
2021/05/22 05:06:33;;;;;;;2.28;0.73;;;;;;;6.93;75.41;99852.75;3593835;40;20049;-79
2021/05/22 05:09:05;;;;;;;2.28;0.68;;;;;;;6.94;75.32;99859.63;3588924;40;20037;-79
2021/05/22 05:11:34;;;;;;;3.72;0.80;;;;;;;6.93;75.70;99850.16;3597219;40;20057;-79
2021/05/22 05:14:01;;;;;;;3.60;0.70;;;;;;;6.93;75.21;99857.94;3593919;40;20031;-79
2021/05/22 05:16:31;;;;;;;1.52;0.70;;;;;;;6.94;75.38;99857.03;3581806;40;20052;-79
2021/05/22 05:18:58;;;;;;;3.17;0.63;;;;;;;6.93;75.58;99857.94;3597630;40;20044;-79
2021/05/22 05:21:25;;;;;;;1.83;0.70;;;;;;;6.95;75.47;99866.56;3598150;40;20039;-79
2021/05/22 05:23:54;;;;;;;4.45;0.70;;;;;;;6.98;75.72;99860.44;3582644;40;20087;-79
2021/05/22 05:26:26;;;;;;;1.23;0.50;;;;;;;7.02;75.95;99862.09;3593099;40;20037;-79
2021/05/22 05:28:53;;;;;;;3.42;0.90;;;;;;;6.99;75.47;99857.84;3582265;40;20468;-79
2021/05/22 05:31:22;;;;;;;4.07;1.00;;;;;;;7.01;75.63;99856.03;3582574;40;20025;-78
2021/05/22 05:33:51;;;;;;;2.22;0.52;;;;;;;7.00;75.75;99848.31;3594396;40;20023;-79
2021/05/22 05:36:17;;;;;;;3.42;1.13;;;;;;;7.08;75.21;99868.88;3583810;40;20029;-79
2021/05/22 05:38:47;;;;;;;4.13;1.40;;;;;;;7.10;75.10;99865.38;3602590;40;20476;-79
2021/05/22 05:41:13;;;;;;;2.38;0.82;;;;;;;7.12;75.53;99873.13;3594072;40;20041;-78
2021/05/22 05:44:10;;;;;;;5.88;0.60;;;;;;;7.21;76.53;99878.13;3584051;40;20082;-78
2021/05/22 05:46:37;;;;;;;3.85;1.00;;;;;;;7.20;75.00;99882.47;3592614;40;20021;-79
2021/05/22 05:49:06;;;;;;;3.38;0.70;;;;;;;7.27;75.05;99880.59;3591313;40;20377;-78
2021/05/22 05:51:34;;;;;;;3.25;0.95;;;;;;;7.25;75.38;99879.78;3590381;40;20032;-79
2021/05/22 05:54:04;;;;;;;5.85;1.42;;;;;;;7.32;75.07;99878.72;3592438;40;20060;-79
2021/05/22 05:56:31;;;;;;;2.15;0.63;;;;;;;7.33;74.94;99879.59;3594926;40;20021;-78
2021/05/22 05:58:58;;;;;;;3.80;0.90;;;;;;;7.38;74.86;99881.19;3579144;40;20045;-79
2021/05/22 06:01:26;;;;;;;2.87;0.80;;;;;;;7.42;75.28;99889.78;3590315;40;20025;-79
2021/05/22 06:03:54;;;;;;;2.60;0.52;;;;;;;7.43;74.92;99888.88;3578909;40;20037;-79
2021/05/22 06:06:21;;;;;;;7.55;1.00;;;;;;;7.49;74.93;99891.31;3586008;40;20038;-79
2021/05/22 06:08:52;;;;;;;6.13;0.90;;;;;;;7.52;75.15;99894.72;3577212;40;20032;-79
2021/05/22 06:11:20;;;;;;;5.22;0.90;;;;;;;7.56;74.54;99899.84;3577820;40;20066;-79
2021/05/22 06:13:47;;;;;;;;;;;;;;;7.65;77.04;99908.25;3590618;40;20039;-78
2021/05/22 06:16:23;;;;;;;3.65;0.80;;;;;;;7.65;75.21;99902.22;3590173;40;19940;-79
2021/05/22 06:18:55;;;;;;;2.00;0.77;;;;;;;7.67;75.08;99903.91;3580808;40;20038;-79
2021/05/22 06:21:22;;;;;;;4.05;0.70;;;;;;;7.70;74.71;99902.97;3588719;40;20061;-79
2021/05/22 06:23:49;;;;;;;2.72;0.90;;;;;;;7.74;74.79;99909.78;3589038;40;20037;-79
2021/05/22 06:26:16;;;;;;;6.50;0.80;;;;;;;7.78;75.01;99895.84;3590034;40;20040;-80
2021/05/22 06:28:44;;;;;;;1.60;0.80;;;;;;;7.80;75.91;99905.28;3584134;40;20025;-79
2021/05/22 06:31:11;;;;;;;4.70;1.00;;;;;;;7.86;75.10;99913.88;3582388;40;20040;-79
2021/05/22 06:33:43;;;;;;;1.80;1.10;;;;;;;7.90;75.73;99911.13;3589207;40;20073;-79
2021/05/22 06:36:10;;;;;;;3.78;0.90;;;;;;;7.95;74.29;99919.66;3577829;40;20512;-79
2021/05/22 06:38:37;;;;;;;3.33;0.90;;;;;;;8.00;74.75;99912.63;3567583;40;20285;-79
2021/05/22 06:41:05;;;;;;;4.53;0.88;;;;;;;8.06;74.37;99917.69;3567522;40;20022;-79
2021/05/22 06:43:32;;;;;;;4.20;0.95;;;;;;;8.07;74.34;99919.38;3589278;40;20430;-78
2021/05/22 06:46:02;;;;;;;2.67;0.80;;;;;;;8.11;74.35;99914.97;3581422;40;20373;-79
2021/05/22 06:48:29;;;;;;;3.17;0.95;;;;;;;8.16;74.37;99914.81;3589449;40;20032;-79
2021/05/22 06:51:02;;;;;;;5.00;1.05;;;;;;;8.23;74.63;99921.59;3588804;40;20078;-79
2021/05/22 06:53:33;;;;;;;5.20;0.80;;;;;;;8.26;74.18;99918.91;3576876;40;20025;-79
2021/05/22 06:56:00;;;;;;;2.72;0.75;;;;;;;8.29;73.88;99929.25;3571758;40;20498;-79
2021/05/22 06:58:27;;;;;;;2.40;0.80;;;;;;;8.34;73.28;99937.78;3581152;40;20051;-79
2021/05/22 07:00:59;;;;;;;4.15;2.33;;;;;;;8.41;74.26;99930.69;3586469;40;20350;-79
2021/05/22 07:03:26;;;;;;;1.67;0.85;;;;;;;8.39;73.32;99933.34;3588054;40;20013;-79
2021/05/22 07:05:57;;;;;;;4.38;0.93;;;;;;;8.48;73.67;99930.50;3585456;40;20028;-80
2021/05/22 07:08:32;;;;;;;3.10;1.27;;;;;;;8.60;74.52;99933.66;3581393;40;20022;-79
2021/05/22 07:11:00;;;;;;;4.10;1.08;;;;;;;8.65;73.41;99948.25;3590342;40;20413;-79
2021/05/22 07:13:30;;;;;;;4.20;1.02;;;;;;;8.75;73.56;99943.66;3584012;40;20057;-80
2021/05/22 07:15:59;;;;;;;2.65;0.73;;;;;;;8.80;73.06;99941.78;3591452;40;20021;-80
2021/05/22 07:18:28;;;;;;;4.47;0.90;;;;;;;8.86;73.08;99952.03;3588603;40;20033;-79
2021/05/22 07:20:54;;;;;;;5.70;1.00;;;;;;;8.91;71.43;99952.75;3594973;40;20753;-80
2021/05/22 07:23:24;;;;;;;3.88;1.20;;;;;;;8.98;71.46;99951.69;3587757;40;20024;-79
2021/05/22 07:25:51;;;;;;;3.63;1.13;;;;;;;9.01;71.47;99946.38;3597302;40;20856;-79
2021/05/22 07:28:18;;;;;;;2.45;0.98;;;;;;;9.10;70.76;99951.34;3592884;40;20044;-79
2021/05/22 07:30:47;;;;;;;6.50;1.10;;;;;;;9.17;71.23;99945.94;3597326;40;20407;-79
2021/05/22 07:33:15;;;;;;;2.20;0.75;;;;;;;9.19;70.00;99952.84;3594152;40;20054;-79
2021/05/22 07:35:46;;;;;;;3.00;0.68;;;;;;;9.27;71.95;99958.66;3597814;40;20025;-79
2021/05/22 07:38:14;;;;;;;4.30;0.98;;;;;;;9.30;70.63;99957.72;3585385;40;20271;-80
2021/05/22 07:40:41;;;;;;;8.45;1.08;;;;;;;9.34;70.66;99969.78;3583025;40;20087;-79
2021/05/22 07:43:10;;;;;;;1.53;0.90;;;;;;;9.43;71.36;99969.50;3594931;40;20024;-79
2021/05/22 07:45:42;;;;;;;3.30;0.98;;;;;;;9.51;70.73;99972.72;3596370;40;20032;-80
2021/05/22 07:48:09;;;;;;;2.83;1.17;;;;;;;9.54;68.98;99975.25;3586480;40;20629;-79
2021/05/22 07:50:37;;;;;;;3.63;0.80;;;;;;;9.60;68.45;99975.06;3593252;40;20029;-79
2021/05/22 07:53:07;;;;;;;3.03;0.90;;;;;;;9.67;67.93;99977.47;3595948;40;20057;-79
2021/05/22 07:55:35;;;;;;;5.20;1.20;;;;;;;9.75;68.05;99978.09;3594587;40;20044;-79
2021/05/22 07:58:07;;;;;;;;;;;;;;;9.87;73.24;99990.75;3589223;40;20088;-79
2021/05/22 08:00:34;;;;;;;1.83;0.80;;;;;;;9.87;67.84;99993.34;3583031;40;19970;-79
2021/05/22 08:03:00;;;;;;;7.10;1.38;;;;;;;9.92;68.61;99996.66;3585553;40;20037;-79
2021/05/22 08:05:27;;;;;;;4.72;1.05;;;;;;;9.90;66.71;99979.38;3586570;40;20070;-79
2021/05/22 08:07:55;;;;;;;4.20;1.23;;;;;;;10.02;67.50;99998.09;3586972;40;20049;-79
2021/05/22 08:10:24;;;;;;;5.13;1.08;;;;;;;10.09;68.38;100001.38;3576851;40;20034;-79
2021/05/22 08:12:53;;;;;;;3.60;1.08;;;;;;;10.14;68.30;100000.31;3586015;40;20116;-80
2021/05/22 08:15:22;;;;;;;3.05;1.05;;;;;;;10.23;66.97;100012.19;3574872;40;20035;-79
2021/05/22 08:17:51;;;;;;;4.20;1.05;;;;;;;10.28;67.64;100004.25;3587567;40;20033;-80
2021/05/22 08:20:19;;;;;;;2.83;0.90;;;;;;;10.35;66.55;99997.97;3585239;40;20034;-79
2021/05/22 08:22:46;;;;;;;;;;;;;;;10.50;71.13;100002.66;3592957;40;20408;-80
2021/05/22 08:25:18;;;;;;;6.28;0.90;;;;;;;10.56;66.73;100005.06;3582420;40;19992;-79
2021/05/22 08:27:45;;;;;;;3.08;0.88;;;;;;;10.60;65.83;100006.66;3578442;40;20036;-80
2021/05/22 08:30:13;;;;;;;3.90;1.60;;;;;;;10.71;64.85;100005.44;3583786;40;20061;-79
2021/05/22 08:32:41;;;;;;;4.32;1.13;;;;;;;10.77;65.69;100015.69;3592446;40;20088;-80
2021/05/22 08:35:17;;;;;;;;;;;;;;;10.92;70.42;100020.38;3591657;40;20036;-79
2021/05/22 08:37:46;;;;;;;1.80;0.90;;;;;;;10.97;65.74;100018.44;3590445;40;19940;-79
2021/05/22 08:40:14;;;;;;;3.90;1.10;;;;;;;11.02;65.18;100011.31;3580031;40;20082;-80
2021/05/22 08:42:44;;;;;;;2.58;0.88;;;;;;;11.14;64.04;100017.84;3594374;40;20032;-80
2021/05/22 08:45:13;;;;;;;2.30;0.90;;;;;;;11.21;63.33;100021.09;3586737;40;20045;-81
2021/05/22 08:47:40;;;;;;;2.50;1.02;;;;;;;11.30;63.09;100025.97;3583509;40;20612;-81
2021/05/22 08:50:11;;;;;;;2.58;1.00;;;;;;;11.37;64.33;100012.63;3587248;40;20006;-81
2021/05/22 08:52:40;;;;;;;4.07;0.90;;;;;;;11.48;61.92;100030.53;3566920;40;20450;-80
2021/05/22 08:55:10;;;;;;;3.15;0.90;;;;;;;11.57;63.30;100024.97;3545694;40;20030;-81
2021/05/22 08:57:39;;;;;;;2.85;0.90;;;;;;;11.67;63.07;100028.94;3572454;40;20026;-81
2021/05/22 09:00:12;;;;;;;3.50;0.90;;;;;;;11.82;62.56;100034.53;3567057;40;20047;-81
2021/05/22 09:02:39;;;;;;;3.88;1.45;;;;;;;11.92;62.64;100041.97;3560955;40;20086;-78
2021/05/22 09:05:14;;;;;;;3.10;0.95;;;;;;;12.10;65.08;100043.00;3554311;40;20038;-79
2021/05/22 09:07:47;;;;;;;2.20;0.90;;;;;;;12.22;64.51;100048.69;3548121;40;20062;-78
2021/05/22 09:10:16;;;;;;;6.70;1.30;;;;;;;12.36;61.18;100041.09;3569431;40;20068;-78
2021/05/22 09:12:49;;;;;;;2.78;0.82;;;;;;;12.52;61.73;100047.44;3556748;40;20034;-79
2021/05/22 09:15:21;;;;;;;4.22;1.02;;;;;;;12.60;60.45;100054.97;3564769;40;20034;-79
2021/05/22 09:17:58;;;;;;;2.72;0.90;;;;;;;12.71;61.48;100045.75;3561418;40;20073;-78
2021/05/22 09:20:33;;;;;;;4.22;0.80;;;;;;;12.77;59.62;100056.88;3560151;40;20033;-78
2021/05/22 09:23:11;;;;;;;2.90;0.77;;;;;;;12.78;58.67;100058.59;3577450;40;20033;-78
2021/05/22 09:25:41;;;;;;;3.03;0.80;;;;;;;12.84;60.18;100068.81;3582563;40;20040;-79
2021/05/22 09:28:10;;;;;;;6.00;1.10;;;;;;;12.95;61.28;100066.59;3593734;40;20061;-78
2021/05/22 09:30:41;;;;;;;2.58;1.00;;;;;;;13.06;59.14;100069.59;3614027;23;20025;-78
2021/05/22 09:33:19;;;;;;;2.08;0.80;;;;;;;13.17;60.84;100059.50;3562038;40;20057;-79
2021/05/22 09:35:58;;;;;;;3.17;0.90;;;;;;;13.29;59.02;100050.28;3554072;40;20029;-78
2021/05/22 09:38:46;;;;;;;2.22;0.90;;;;;;;13.45;63.07;100060.94;3561589;40;20470;-79
2021/05/22 09:41:28;;;;;;;3.05;0.88;;;;;;;13.56;60.78;100063.94;3561769;40;20050;-78
2021/05/22 09:44:15;;;;;;;2.30;0.82;;;;;;;13.71;61.35;100054.53;3557620;40;20062;-78
2021/05/22 09:47:07;;;;;;;1.50;0.70;;;;;;;14.07;62.15;100054.56;3560286;40;20076;-79
2021/05/22 09:49:37;;;;;;;1.15;0.68;;;;;;;14.39;55.35;100060.06;3549276;40;20027;-78
2021/05/22 09:52:10;;;;;;;2.25;0.68;;;;;;;14.75;54.32;100063.53;3558556;40;20030;-79
2021/05/22 09:54:46;;;;;;;2.92;0.90;;;;;;;15.22;55.74;100060.25;3558437;40;20026;-79
2021/05/22 09:57:42;;;;;;;1.80;0.65;;;;;;;15.62;57.40;100058.16;3558038;40;20078;-79
2021/05/22 10:00:16;;;;;;;2.65;0.60;;;;;;;15.90;55.88;100059.31;3553956;40;20120;-79
2021/05/22 10:02:53;;;;;;;1.45;0.60;;;;;;;16.18;54.30;100070.03;3553780;40;20029;-79
2021/05/22 10:05:26;;;;;;;1.65;0.52;;;;;;;16.38;51.53;100065.44;3551268;40;20055;-79
2021/05/22 10:08:20;;;;;;;1.10;0.43;;;;;;;16.54;55.70;100077.63;3559161;40;20056;-79
2021/05/22 10:10:51;;;;;;;1.67;0.60;;;;;;;16.50;48.24;100072.63;3564877;40;20027;-79
2021/05/22 10:13:20;;;;;;;0.88;0.50;;;;;;;16.42;49.24;100074.81;3573264;40;20076;-79
2021/05/22 10:15:51;;;;;;;1.58;0.40;;;;;;;16.38;50.06;100075.97;3580150;40;20088;-79
2021/05/22 10:18:22;;;;;;;3.85;0.60;;;;;;;16.37;49.01;100074.25;3575567;40;20033;-79
2021/05/22 10:20:50;;;;;;;1.13;0.40;;;;;;;16.25;48.01;100074.00;3583553;40;20029;-78
2021/05/22 10:23:20;;;;;;;0.63;0.50;;;;;;;16.22;47.22;100076.81;3576530;40;20083;-80
2021/05/22 10:25:55;;;;;;;0.93;0.50;;;;;;;16.18;50.62;100074.44;3580824;40;20037;-79
2021/05/22 10:28:23;;;;;;;0.95;0.52;;;;;;;16.01;47.47;100078.84;3580238;40;20018;-79
2021/05/22 10:30:50;;;;;;;2.05;0.68;;;;;;;15.91;46.68;100084.69;3580752;40;20053;-79
2021/05/22 10:33:18;;;;;;;1.50;0.85;;;;;;;15.82;48.11;100084.28;3571883;40;20042;-79
2021/05/22 10:35:49;;;;;;;1.90;0.60;;;;;;;15.73;47.54;100091.81;3580673;40;20045;-78
2021/05/22 10:38:32;;;;;;;1.55;0.52;;;;;;;15.65;51.96;100102.75;3566514;40;20026;-78
2021/05/22 10:41:11;;;;;;;1.08;0.50;;;;;;;15.51;49.71;100089.44;3574641;40;20021;-80
2021/05/22 10:43:52;;;;;;;1.50;0.50;;;;;;;15.45;51.29;100090.59;3599136;23;20046;-78
2021/05/22 10:46:21;;;;;;;2.13;0.63;;;;;;;15.48;49.34;100084.34;3590451;40;20378;-79
2021/05/22 10:48:49;;;;;;;2.58;0.52;;;;;;;15.86;48.71;100089.38;3571798;40;20014;-79
2021/05/22 10:51:34;;;;;;;1.75;0.75;;;;;;;16.40;51.85;100087.25;3567984;40;20492;-79
2021/05/22 10:54:06;;;;;;;1.02;0.60;;;;;;;16.88;48.95;100088.03;3570734;40;20059;-79
2021/05/22 10:56:54;;;;;;;3.80;0.65;;;;;;;17.11;46.88;100084.88;3572645;40;20504;-78
2021/05/22 10:59:26;;;;;;;1.65;0.60;;;;;;;17.35;47.34;100090.50;3566324;40;20018;-79
2021/05/22 11:01:54;;;;;;;0.80;0.57;;;;;;;17.36;46.63;100082.47;3563671;40;20431;-79
2021/05/22 11:04:25;;;;;;;3.85;0.60;;;;;;;17.60;46.95;100089.84;3572777;40;20114;-80
2021/05/22 11:07:01;;;;;;;1.85;0.45;;;;;;;17.94;47.92;100093.03;3564500;40;20058;-79
2021/05/22 11:09:30;;;;;;;0.50;0.40;;;;;;;18.32;44.40;100083.53;3564447;40;20057;-79
2021/05/22 11:12:04;;;;;;;1.27;0.40;;;;;;;18.79;46.56;100087.53;3563087;40;20034;-80
2021/05/22 11:14:43;;;;;;;0.47;0.32;;;;;;;19.24;48.05;100087.19;3568828;40;20057;-80
2021/05/22 11:20:02;;;;;;;0.80;0.60;;;;;;;20.30;47.34;100089.38;3577741;40;20079;-80
2021/05/22 11:22:56;;;;;;;2.15;0.50;;;;;;;20.94;47.47;100086.47;3586994;40;20025;-80
2021/05/22 11:25:28;;;;;;;2.25;0.70;;;;;;;21.21;40.77;100080.84;3589119;40;20036;-80
2021/05/22 11:28:00;;;;;;;0.50;0.40;;;;;;;21.43;38.26;100093.31;3585374;40;20041;-80
2021/05/22 11:30:33;;;;;;;2.22;0.40;;;;;;;21.47;38.51;100098.28;3588674;40;20034;-79
2021/05/22 11:33:01;;;;;;;1.63;0.43;;;;;;;21.41;37.80;100104.09;3582072;40;20110;-80
2021/05/22 11:35:34;;;;;;;0.85;0.43;;;;;;;21.32;39.39;100107.44;3585754;40;20036;-79
2021/05/22 11:38:13;;;;;;;1.40;0.57;;;;;;;21.17;42.06;100111.25;3582935;40;20371;-80
2021/05/22 11:40:57;;;;;;;1.95;0.57;;;;;;;20.89;40.22;100108.03;3576909;40;20029;-79
2021/05/22 11:43:29;;;;;;;0.73;0.40;;;;;;;20.70;42.24;100115.66;3583004;40;20377;-80
2021/05/22 11:46:17;;;;;;;0.75;0.30;;;;;;;20.56;42.93;100110.53;3578650;40;20032;-79
2021/05/22 11:48:50;;;;;;;0.60;0.30;;;;;;;20.32;39.45;100108.66;3580168;40;20033;-79
2021/05/22 11:51:25;;;;;;;1.27;0.60;;;;;;;20.15;40.65;100111.72;3562104;40;20036;-80
2021/05/22 11:54:08;;;;;;;0.40;0.40;;;;;;;19.95;39.48;100121.91;3575282;40;20020;-79
2021/05/22 11:56:38;;;;;;;2.42;0.50;;;;;;;19.72;38.39;100114.75;3567876;40;20480;-80